Time;durP1;ratioP1;P1;durP2;ratioP2;P2;SDS_P1;SDS_P2;PMS_P1;PMS_P2;Temp;Humidity;BMP_temperature;BMP_pressure;BME280_temperature;BME280_humidity;BME280_pressure;Samples;Min_cycle;Max_cycle;Signal;HPM_P1;HPM_P2
2021/05/21 00:00:04;;;;;;;5.68;2.20;;;;;;;;;;5024195;28;20032;-85
2021/05/21 00:02:30;;;;;;;2.35;2.05;;;;;;;;;;5022726;28;20036;-85
2021/05/21 00:04:56;;;;;;;2.38;2.00;;;;;;;;;;5025303;28;20124;-85
2021/05/21 00:07:22;;;;;;;3.35;2.30;;;;;;;;;;5022300;28;20029;-85
2021/05/21 00:09:48;;;;;;;2.35;2.13;;;;;;;;;;5016270;28;20489;-85
2021/05/21 00:12:14;;;;;;;2.90;2.30;;;;;;;;;;5048042;28;20084;-85
2021/05/21 00:14:40;;;;;;;2.55;2.10;;;;;;;;;;5030554;28;20025;-85
2021/05/21 00:17:06;;;;;;;7.47;2.35;;;;;;;;;;5028928;28;20023;-85
2021/05/21 00:19:32;;;;;;;2.53;2.28;;;;;;;;;;5026294;28;20025;-85
2021/05/21 00:21:58;;;;;;;3.67;2.53;;;;;;;;;;5037433;28;20025;-85
2021/05/21 00:24:24;;;;;;;3.67;2.25;;;;;;;;;;5026956;28;20455;-85
2021/05/21 00:26:50;;;;;;;4.22;2.30;;;;;;;;;;5037580;28;20035;-85
2021/05/21 00:29:17;;;;;;;3.90;2.92;;;;;;;;;;5070170;28;20036;-85
2021/05/21 00:31:44;;;;;;;2.90;2.40;;;;;;;;;;5068617;28;20039;-85
2021/05/21 00:34:10;;;;;;;2.58;2.13;;;;;;;;;;5063409;28;20029;-85
2021/05/21 00:36:36;;;;;;;2.88;1.90;;;;;;;;;;5073088;28;20052;-85
2021/05/21 00:39:02;;;;;;;2.85;2.47;;;;;;;;;;5059030;28;20052;-85
2021/05/21 00:41:28;;;;;;;3.95;2.20;;;;;;;;;;5074530;28;20490;-85
2021/05/21 00:43:56;;;;;;;4.55;2.53;;;;;;;;;;5074327;28;20043;-85
2021/05/21 00:46:22;;;;;;;3.40;2.17;;;;;;;;;;5054881;28;20029;-85
2021/05/21 00:48:48;;;;;;;2.22;1.90;;;;;;;;;;5059982;28;20040;-85
2021/05/21 00:51:14;;;;;;;2.35;1.77;;;;;;;;;;5073109;28;20044;-85
2021/05/21 00:53:40;;;;;;;3.75;2.28;;;;;;;;;;5075515;28;20098;-85
2021/05/21 00:56:08;;;;;;;3.28;2.08;;;;;;;;;;5053554;28;20120;-85
2021/05/21 00:58:34;;;;;;;2.45;1.83;;;;;;;;;;5066411;28;20057;-85
2021/05/21 01:01:00;;;;;;;3.22;2.25;;;;;;;;;;5060702;28;20154;-84
2021/05/21 01:03:26;;;;;;;2.75;1.80;;;;;;;;;;5060312;28;20021;-84
2021/05/21 01:05:52;;;;;;;3.28;2.10;;;;;;;;;;5061001;28;20056;-84
2021/05/21 01:08:19;;;;;;;3.83;2.00;;;;;;;;;;5060254;28;20104;-84
2021/05/21 01:10:45;;;;;;;3.05;2.08;;;;;;;;;;5073728;28;20052;-84
2021/05/21 01:13:11;;;;;;;2.33;1.83;;;;;;;;;;5061871;28;20025;-84
2021/05/21 01:15:38;;;;;;;3.28;2.10;;;;;;;;;;5061727;28;20148;-84
2021/05/21 01:18:08;;;;;;;4.50;2.97;;;;;;;;;;5061084;28;20040;-84
2021/05/21 01:20:36;;;;;;;10.25;4.57;;;;;;;;;;5062815;28;20178;-84
2021/05/21 01:23:02;;;;;;;6.22;3.83;;;;;;;;;;5069606;28;20020;-84
2021/05/21 01:25:28;;;;;;;5.82;3.08;;;;;;;;;;5063324;28;20118;-84
2021/05/21 01:27:58;;;;;;;4.60;2.88;;;;;;;;;;5070809;28;20040;-84
2021/05/21 01:30:25;;;;;;;5.18;2.80;;;;;;;;;;5067219;28;20028;-84
2021/05/21 01:32:53;;;;;;;5.20;2.90;;;;;;;;;;5062309;28;20028;-84
2021/05/21 01:35:20;;;;;;;4.53;3.10;;;;;;;;;;5074923;28;20165;-84
2021/05/21 01:37:47;;;;;;;3.83;2.60;;;;;;;;;;5067607;28;20044;-84
2021/05/21 01:40:15;;;;;;;3.80;2.88;;;;;;;;;;5053857;28;20028;-84
2021/05/21 01:42:41;;;;;;;3.80;2.67;;;;;;;;;;5073953;28;20090;-84
2021/05/21 01:45:08;;;;;;;2.60;2.33;;;;;;;;;;5069124;28;20159;-84
2021/05/21 01:47:34;;;;;;;3.20;2.83;;;;;;;;;;5053432;28;20460;-84
2021/05/21 01:50:00;;;;;;;4.45;2.40;;;;;;;;;;5069278;28;20113;-84
2021/05/21 01:52:26;;;;;;;3.83;3.05;;;;;;;;;;5058100;28;20392;-84
2021/05/21 01:54:52;;;;;;;3.88;2.60;;;;;;;;;;5053173;28;20025;-84
2021/05/21 01:57:18;;;;;;;3.70;2.80;;;;;;;;;;5074476;28;20020;-84
2021/05/21 01:59:44;;;;;;;4.00;2.83;;;;;;;;;;5059783;28;20404;-84
2021/05/21 02:02:10;;;;;;;6.00;2.85;;;;;;;;;;5058672;28;20017;-84
2021/05/21 02:04:37;;;;;;;3.80;2.80;;;;;;;;;;5067172;28;20491;-84
2021/05/21 02:07:04;;;;;;;3.92;3.10;;;;;;;;;;5074016;28;20052;-84
2021/05/21 02:09:33;;;;;;;4.70;3.20;;;;;;;;;;5073437;28;20039;-84
2021/05/21 02:12:04;;;;;;;4.63;2.88;;;;;;;;;;5054418;28;20120;-84
2021/05/21 02:14:30;;;;;;;4.25;2.83;;;;;;;;;;5068433;28;20331;-84
2021/05/21 02:16:56;;;;;;;4.40;2.80;;;;;;;;;;5065541;28;20465;-84
2021/05/21 02:19:22;;;;;;;4.38;3.00;;;;;;;;;;5063248;28;20033;-84
2021/05/21 02:21:48;;;;;;;4.05;2.83;;;;;;;;;;5064164;28;20025;-84
2021/05/21 02:24:14;;;;;;;3.60;2.88;;;;;;;;;;5072743;28;20496;-84
2021/05/21 02:26:40;;;;;;;4.82;2.88;;;;;;;;;;5070931;28;20024;-84
2021/05/21 02:29:06;;;;;;;4.95;2.70;;;;;;;;;;5070188;28;20464;-84
2021/05/21 02:31:32;;;;;;;3.38;2.65;;;;;;;;;;5056713;28;20017;-84
2021/05/21 02:33:58;;;;;;;3.97;2.70;;;;;;;;;;5087002;28;20091;-84
2021/05/21 02:36:24;;;;;;;5.93;2.92;;;;;;;;;;5058184;28;20140;-84
2021/05/21 02:38:50;;;;;;;3.30;2.63;;;;;;;;;;5059053;28;20107;-84
2021/05/21 02:41:16;;;;;;;5.00;2.80;;;;;;;;;;5065499;28;20083;-84
2021/05/21 02:43:42;;;;;;;4.00;2.83;;;;;;;;;;5052046;28;20504;-84
2021/05/21 02:46:08;;;;;;;4.72;2.92;;;;;;;;;;5052384;28;20032;-84
2021/05/21 02:48:34;;;;;;;3.70;3.03;;;;;;;;;;5058667;28;20054;-84
2021/05/21 02:51:00;;;;;;;4.45;2.78;;;;;;;;;;5053651;28;20128;-84
2021/05/21 02:53:26;;;;;;;4.22;3.28;;;;;;;;;;5062301;28;20119;-84
2021/05/21 02:55:52;;;;;;;5.60;3.42;;;;;;;;;;5060135;28;20116;-84
2021/05/21 02:58:19;;;;;;;5.43;3.17;;;;;;;;;;5059839;28;20519;-84
2021/05/21 03:00:45;;;;;;;3.70;2.42;;;;;;;;;;5053074;28;20017;-84
2021/05/21 03:03:11;;;;;;;3.13;2.65;;;;;;;;;;5051844;28;20028;-84
2021/05/21 03:05:37;;;;;;;4.35;2.85;;;;;;;;;;5070050;28;20083;-84
2021/05/21 03:08:03;;;;;;;4.00;2.92;;;;;;;;;;5059737;28;20094;-84
2021/05/21 03:10:30;;;;;;;5.13;3.38;;;;;;;;;;5070370;28;20033;-84
2021/05/21 03:12:56;;;;;;;5.20;3.03;;;;;;;;;;5059027;28;20492;-84
2021/05/21 03:15:22;;;;;;;3.33;2.80;;;;;;;;;;5070015;28;20016;-84
2021/05/21 03:17:48;;;;;;;4.50;3.20;;;;;;;;;;5058724;28;20056;-84
2021/05/21 03:20:15;;;;;;;4.95;2.88;;;;;;;;;;5069368;28;20464;-84
2021/05/21 03:22:41;;;;;;;5.03;3.30;;;;;;;;;;5067526;28;20063;-84
2021/05/21 03:25:07;;;;;;;4.05;2.83;;;;;;;;;;5066842;28;20036;-84
2021/05/21 03:27:34;;;;;;;3.72;2.80;;;;;;;;;;5068882;28;20163;-84
2021/05/21 03:30:01;;;;;;;4.95;2.72;;;;;;;;;;5017253;28;20088;-84
2021/05/21 03:32:27;;;;;;;5.57;3.10;;;;;;;;;;5025959;28;20059;-84
2021/05/21 03:34:53;;;;;;;4.78;2.90;;;;;;;;;;5051571;28;20162;-84
2021/05/21 03:37:19;;;;;;;3.90;2.70;;;;;;;;;;5025804;28;20350;-84
2021/05/21 03:39:45;;;;;;;3.95;2.85;;;;;;;;;;5052664;28;20029;-84
2021/05/21 03:42:13;;;;;;;4.95;2.80;;;;;;;;;;5024167;28;20078;-84
2021/05/21 03:44:39;;;;;;;4.90;3.20;;;;;;;;;;5022816;28;20029;-84
2021/05/21 03:47:05;;;;;;;4.80;2.95;;;;;;;;;;5034474;28;20043;-84
2021/05/21 03:49:32;;;;;;;3.20;2.60;;;;;;;;;;5020368;28;20481;-84
2021/05/21 03:51:58;;;;;;;4.60;3.05;;;;;;;;;;5028259;28;20484;-84
2021/05/21 03:54:24;;;;;;;5.88;3.08;;;;;;;;;;5015891;28;20569;-84
2021/05/21 03:56:51;;;;;;;6.20;3.03;;;;;;;;;;5014923;28;20473;-84
2021/05/21 03:59:17;;;;;;;5.28;3.28;;;;;;;;;;5019636;28;20033;-84
2021/05/21 04:01:44;;;;;;;3.15;2.75;;;;;;;;;;5025946;28;20057;-84
2021/05/21 04:04:10;;;;;;;4.55;3.13;;;;;;;;;;5034241;28;20373;-84
2021/05/21 04:06:36;;;;;;;5.07;3.28;;;;;;;;;;5033185;28;20060;-84
2021/05/21 04:09:06;;;;;;;4.25;2.75;;;;;;;;;;5026966;28;20017;-84
2021/05/21 04:11:33;;;;;;;5.18;3.70;;;;;;;;;;5021551;28;20033;-84
2021/05/21 04:13:59;;;;;;;3.85;2.90;;;;;;;;;;5045426;28;20490;-84
2021/05/21 04:16:25;;;;;;;4.47;3.20;;;;;;;;;;5046473;28;20029;-84
2021/05/21 04:18:51;;;;;;;4.03;3.50;;;;;;;;;;5035182;28;20025;-84
2021/05/21 04:21:18;;;;;;;5.35;2.97;;;;;;;;;;5052311;28;20009;-81
2021/05/21 04:23:44;;;;;;;4.60;2.88;;;;;;;;;;5034830;28;20036;-81
2021/05/21 04:26:10;;;;;;;6.50;2.67;;;;;;;;;;5024309;28;20033;-81
2021/05/21 04:28:36;;;;;;;4.55;3.20;;;;;;;;;;5038140;28;20053;-82
2021/05/21 04:31:03;;;;;;;4.55;2.97;;;;;;;;;;5064284;28;20036;-86
2021/05/21 04:33:29;;;;;;;4.13;3.08;;;;;;;;;;5071775;28;20124;-82
2021/05/21 04:35:56;;;;;;;3.70;3.00;;;;;;;;;;5064216;28;20517;-86
2021/05/21 04:38:22;;;;;;;3.75;2.80;;;;;;;;;;5059459;28;20437;-85
2021/05/21 04:40:48;;;;;;;4.40;3.22;;;;;;;;;;5062995;28;20054;-86
2021/05/21 04:43:14;;;;;;;4.18;2.97;;;;;;;;;;5068632;28;20536;-85
2021/05/21 04:45:40;;;;;;;5.45;3.17;;;;;;;;;;5058855;28;20024;-85
2021/05/21 04:48:06;;;;;;;3.55;2.90;;;;;;;;;;5065439;28;20056;-83
2021/05/21 04:50:32;;;;;;;3.65;3.03;;;;;;;;;;5071830;28;20087;-84
2021/05/21 04:52:58;;;;;;;3.47;2.95;;;;;;;;;;5053377;28;20489;-84
2021/05/21 04:55:24;;;;;;;4.03;2.75;;;;;;;;;;5071320;28;20039;-83
2021/05/21 04:57:51;;;;;;;4.43;2.75;;;;;;;;;;5058390;28;20159;-83
2021/05/21 05:00:17;;;;;;;3.35;3.05;;;;;;;;;;5064782;28;20021;-83
2021/05/21 05:02:43;;;;;;;4.10;3.00;;;;;;;;;;5060928;28;20024;-85
2021/05/21 05:05:10;;;;;;;4.10;2.80;;;;;;;;;;5069517;28;20025;-84
2021/05/21 05:07:36;;;;;;;3.97;2.80;;;;;;;;;;5071116;28;20063;-85
2021/05/21 05:10:02;;;;;;;3.83;2.45;;;;;;;;;;5058800;28;20024;-85
2021/05/21 05:12:28;;;;;;;4.47;2.75;;;;;;;;;;5062057;28;20065;-85
2021/05/21 05:14:54;;;;;;;3.67;2.33;;;;;;;;;;5062423;28;20039;-84
2021/05/21 05:17:20;;;;;;;3.35;2.47;;;;;;;;;;5061789;28;20031;-85
2021/05/21 05:19:46;;;;;;;4.20;2.80;;;;;;;;;;5061078;28;20029;-87
2021/05/21 05:22:12;;;;;;;3.85;2.67;;;;;;;;;;5064027;28;20040;-85
2021/05/21 05:24:38;;;;;;;4.60;2.58;;;;;;;;;;5066390;28;20376;-85
2021/05/21 05:27:06;;;;;;;3.35;2.40;;;;;;;;;;5062867;28;20025;-86
2021/05/21 05:29:34;;;;;;;5.88;2.65;;;;;;;;;;5059303;28;20028;-84
2021/05/21 05:32:01;;;;;;;3.35;2.47;;;;;;;;;;5058497;28;20361;-84
2021/05/21 05:34:27;;;;;;;3.65;2.20;;;;;;;;;;5067254;28;20033;-85
2021/05/21 05:36:54;;;;;;;5.75;2.38;;;;;;;;;;5059474;28;20021;-84
2021/05/21 05:39:20;;;;;;;4.25;2.03;;;;;;;;;;5059608;28;20021;-84
2021/05/21 05:41:50;;;;;;;4.57;2.20;;;;;;;;;;5070306;28;20052;-84
2021/05/21 05:44:20;;;;;;;3.85;2.50;;;;;;;;;;5068594;28;20032;-84
2021/05/21 05:46:46;;;;;;;2.35;1.92;;;;;;;;;;5077491;28;20028;-84
2021/05/21 05:49:13;;;;;;;5.35;2.40;;;;;;;;;;5067251;28;20117;-85
2021/05/21 05:51:40;;;;;;;3.58;1.95;;;;;;;;;;5066051;28;20027;-86
2021/05/21 05:54:06;;;;;;;4.68;2.10;;;;;;;;;;5065739;28;20074;-84
2021/05/21 05:56:33;;;;;;;3.58;1.80;;;;;;;;;;5051308;28;20035;-88
2021/05/21 05:58:59;;;;;;;3.60;2.00;;;;;;;;;;5071669;28;20465;-88
2021/05/21 06:01:25;;;;;;;3.92;2.38;;;;;;;;;;5068397;28;20060;-87
2021/05/21 06:03:51;;;;;;;2.03;1.40;;;;;;;;;;5073561;28;20024;-89
2021/05/21 06:06:17;;;;;;;5.05;1.70;;;;;;;;;;5066881;28;20033;-90
2021/05/21 06:08:43;;;;;;;4.03;1.48;;;;;;;;;;5056473;28;20029;-89
2021/05/21 06:11:09;;;;;;;2.95;1.70;;;;;;;;;;5068610;28;20543;-89
2021/05/21 06:13:35;;;;;;;2.15;1.48;;;;;;;;;;5072126;28;20025;-89
2021/05/21 06:16:01;;;;;;;4.32;1.55;;;;;;;;;;5057607;28;20082;-89
2021/05/21 06:18:27;;;;;;;2.20;1.40;;;;;;;;;;5068835;28;20024;-88
2021/05/21 06:20:53;;;;;;;2.53;1.40;;;;;;;;;;5070524;28;20024;-89
2021/05/21 06:23:19;;;;;;;1.80;1.30;;;;;;;;;;5069239;28;20369;-88
2021/05/21 06:28:18;;;;;;;4.38;1.40;;;;;;;;;;5046401;28;20056;-88
2021/05/21 06:30:44;;;;;;;2.22;1.00;;;;;;;;;;5018179;28;20036;-88
2021/05/21 06:33:10;;;;;;;2.13;1.38;;;;;;;;;;5035724;28;20025;-89
2021/05/21 06:35:36;;;;;;;2.42;1.10;;;;;;;;;;5020990;28;20038;-89
2021/05/21 06:38:03;;;;;;;2.42;1.30;;;;;;;;;;5035588;28;20033;-89
2021/05/21 06:40:29;;;;;;;1.60;1.13;;;;;;;;;;5017596;28;20021;-90
2021/05/21 06:42:55;;;;;;;1.48;1.00;;;;;;;;;;5039744;28;20059;-90
2021/05/21 06:45:21;;;;;;;3.40;1.27;;;;;;;;;;5035719;28;20029;-90
2021/05/21 06:47:47;;;;;;;2.35;1.25;;;;;;;;;;5027188;28;20121;-89
2021/05/21 06:50:13;;;;;;;3.60;0.98;;;;;;;;;;5018060;28;20116;-89
2021/05/21 06:52:39;;;;;;;1.63;1.20;;;;;;;;;;5031675;28;20052;-89
2021/05/21 06:55:06;;;;;;;1.52;1.20;;;;;;;;;;5036058;28;20112;-89
2021/05/21 06:57:32;;;;;;;1.15;1.00;;;;;;;;;;5047601;28;20021;-88
2021/05/21 06:59:59;;;;;;;2.05;1.10;;;;;;;;;;5034038;28;20040;-90
2021/05/21 07:02:29;;;;;;;1.63;1.35;;;;;;;;;;5029142;28;20453;-89
2021/05/21 07:04:55;;;;;;;3.00;1.20;;;;;;;;;;5028932;28;20033;-89
2021/05/21 07:07:21;;;;;;;2.53;1.58;;;;;;;;;;5018280;28;20381;-89
2021/05/21 07:09:47;;;;;;;3.55;1.08;;;;;;;;;;5017414;28;20021;-89
2021/05/21 07:12:13;;;;;;;2.25;1.20;;;;;;;;;;5017970;28;20037;-89
2021/05/21 07:14:41;;;;;;;2.35;1.17;;;;;;;;;;5034574;28;20431;-89
2021/05/21 07:17:07;;;;;;;2.72;1.48;;;;;;;;;;5023162;28;20035;-88
2021/05/21 07:19:33;;;;;;;2.15;1.20;;;;;;;;;;5032623;28;20025;-88
2021/05/21 07:21:59;;;;;;;2.78;1.05;;;;;;;;;;5027373;28;20029;-86
2021/05/21 07:24:25;;;;;;;1.88;1.13;;;;;;;;;;5032460;28;20024;-86
2021/05/21 07:26:51;;;;;;;1.17;0.98;;;;;;;;;;5018779;28;20112;-84
2021/05/21 07:29:17;;;;;;;4.70;1.50;;;;;;;;;;5051217;28;20043;-85
2021/05/21 07:31:43;;;;;;;4.90;1.25;;;;;;;;;;5066159;28;20029;-84
2021/05/21 07:34:09;;;;;;;2.50;1.27;;;;;;;;;;5064858;28;20056;-84
2021/05/21 07:36:35;;;;;;;5.18;1.20;;;;;;;;;;5071921;28;20074;-83
2021/05/21 07:39:01;;;;;;;2.35;1.05;;;;;;;;;;5059119;28;20021;-83
2021/05/21 07:41:28;;;;;;;3.83;1.00;;;;;;;;;;5059908;28;20028;-84
2021/05/21 07:43:55;;;;;;;2.22;0.98;;;;;;;;;;5058737;28;20053;-83
2021/05/21 07:46:21;;;;;;;1.80;0.98;;;;;;;;;;5058684;28;20036;-84
2021/05/21 07:48:49;;;;;;;4.32;1.00;;;;;;;;;;5073217;28;20028;-84
2021/05/21 07:51:15;;;;;;;2.42;1.02;;;;;;;;;;5067398;28;20039;-84
2021/05/21 07:53:41;;;;;;;1.52;0.82;;;;;;;;;;5059069;28;20033;-84
2021/05/21 07:56:07;;;;;;;1.55;1.00;;;;;;;;;;5058912;28;20415;-84
2021/05/21 07:58:33;;;;;;;1.35;1.00;;;;;;;;;;5056792;28;20021;-84
2021/05/21 08:00:59;;;;;;;2.17;0.80;;;;;;;;;;5053408;28;20025;-84
2021/05/21 08:03:25;;;;;;;2.22;1.00;;;;;;;;;;5053992;28;20143;-83
2021/05/21 08:05:51;;;;;;;3.17;1.10;;;;;;;;;;5069935;28;20044;-84
2021/05/21 08:08:21;;;;;;;1.52;0.90;;;;;;;;;;5066412;28;20063;-84
2021/05/21 08:10:51;;;;;;;6.10;1.20;;;;;;;;;;5061319;28;20025;-84
2021/05/21 08:13:17;;;;;;;3.17;0.70;;;;;;;;;;5063512;28;20046;-84
2021/05/21 08:15:44;;;;;;;1.80;0.75;;;;;;;;;;5063171;28;20060;-85
2021/05/21 08:18:10;;;;;;;3.55;1.67;;;;;;;;;;5061876;28;20027;-85
2021/05/21 08:20:36;;;;;;;9.30;0.90;;;;;;;;;;5064356;28;20380;-85
2021/05/21 08:23:02;;;;;;;2.25;0.60;;;;;;;;;;5059197;28;20377;-85
2021/05/21 08:25:28;;;;;;;2.25;0.90;;;;;;;;;;5061064;28;20067;-85
2021/05/21 08:27:55;;;;;;;3.88;0.70;;;;;;;;;;5057230;28;20487;-85
2021/05/21 08:30:22;;;;;;;2.30;0.80;;;;;;;;;;5057156;28;20047;-84
2021/05/21 08:32:49;;;;;;;6.53;1.00;;;;;;;;;;5057700;28;20028;-85
2021/05/21 08:35:16;;;;;;;2.67;0.90;;;;;;;;;;5065509;28;20055;-85
2021/05/21 08:37:42;;;;;;;3.20;0.60;;;;;;;;;;5057277;28;20053;-85
2021/05/21 08:40:08;;;;;;;2.53;0.85;;;;;;;;;;5063078;28;20043;-85
2021/05/21 08:42:39;;;;;;;1.73;0.65;;;;;;;;;;5064547;28;20043;-85
2021/05/21 08:45:06;;;;;;;2.35;0.60;;;;;;;;;;5058018;28;20036;-84
2021/05/21 08:47:35;;;;;;;2.85;0.70;;;;;;;;;;5073542;28;20496;-84
2021/05/21 08:50:02;;;;;;;2.72;0.70;;;;;;;;;;5069672;28;20474;-85
2021/05/21 08:52:28;;;;;;;2.28;0.80;;;;;;;;;;5071235;28;20423;-85
2021/05/21 08:54:54;;;;;;;1.15;0.52;;;;;;;;;;5073294;28;20081;-85
2021/05/21 08:57:20;;;;;;;2.13;0.95;;;;;;;;;;5060264;28;20381;-84
2021/05/21 08:59:47;;;;;;;5.35;0.88;;;;;;;;;;5060656;28;20501;-86
2021/05/21 09:02:15;;;;;;;2.22;0.70;;;;;;;;;;5071203;28;20017;-85
2021/05/21 09:04:55;;;;;;;3.90;0.90;;;;;;;;;;5073562;28;20024;-85
2021/05/21 09:07:44;;;;;;;3.35;0.90;;;;;;;;;;5070351;28;20031;-85
2021/05/21 09:10:14;;;;;;;1.30;0.50;;;;;;;;;;5051222;28;20033;-84
2021/05/21 09:12:48;;;;;;;2.55;0.90;;;;;;;;;;5064336;28;20116;-84
2021/05/21 09:15:14;;;;;;;2.03;0.77;;;;;;;;;;5071822;28;20492;-84
2021/05/21 09:17:59;;;;;;;3.80;1.00;;;;;;;;;;5066092;28;20021;-84
2021/05/21 09:20:27;;;;;;;0.77;0.57;;;;;;;;;;5073204;28;20050;-85
2021/05/21 09:23:07;;;;;;;4.32;0.70;;;;;;;;;;5071851;28;20020;-85
2021/05/21 09:25:39;;;;;;;4.63;0.70;;;;;;;;;;5059350;28;20120;-85
2021/05/21 09:28:05;;;;;;;1.77;0.55;;;;;;;;;;5055001;28;20047;-85
2021/05/21 09:30:32;;;;;;;2.33;0.40;;;;;;;;;;5027891;28;20115;-85
2021/05/21 09:33:01;;;;;;;3.60;0.60;;;;;;;;;;5027613;28;20031;-85
2021/05/21 09:35:27;;;;;;;3.53;0.52;;;;;;;;;;5053396;28;20148;-85
2021/05/21 09:37:54;;;;;;;2.17;0.50;;;;;;;;;;5026806;28;20061;-85
2021/05/21 09:40:21;;;;;;;3.42;0.50;;;;;;;;;;5040304;28;20037;-85
2021/05/21 09:42:50;;;;;;;1.67;0.47;;;;;;;;;;5037979;28;20132;-85
2021/05/21 09:45:29;;;;;;;2.85;0.52;;;;;;;;;;5027796;28;20025;-85
2021/05/21 09:47:56;;;;;;;0.68;0.32;;;;;;;;;;5049943;28;20075;-85
2021/05/21 09:50:41;;;;;;;2.47;0.80;;;;;;;;;;5018465;28;20033;-85
2021/05/21 09:53:09;;;;;;;1.83;0.43;;;;;;;;;;5016929;28;20026;-85
2021/05/21 09:55:51;;;;;;;4.30;0.88;;;;;;;;;;5028025;28;20028;-85
2021/05/21 09:58:31;;;;;;;2.25;0.60;;;;;;;;;;5030095;28;20481;-85
2021/05/21 10:01:04;;;;;;;3.55;0.88;;;;;;;;;;5018059;28;20388;-85
2021/05/21 10:03:30;;;;;;;0.37;0.30;;;;;;;;;;5027328;28;20043;-85
2021/05/21 10:05:56;;;;;;;1.85;0.65;;;;;;;;;;5018878;28;20280;-85
2021/05/21 10:08:22;;;;;;;2.80;0.63;;;;;;;;;;5027033;28;20101;-85
2021/05/21 10:10:48;;;;;;;1.33;0.40;;;;;;;;;;5035017;28;20051;-85
2021/05/21 10:13:15;;;;;;;1.73;0.60;;;;;;;;;;5029066;28;20865;-84
2021/05/21 10:15:40;;;;;;;1.20;0.40;;;;;;;;;;5036266;28;20033;-85
2021/05/21 10:18:10;;;;;;;1.60;0.40;;;;;;;;;;5037347;28;20028;-85
2021/05/21 10:20:35;;;;;;;1.13;0.45;;;;;;;;;;5017525;28;20049;-85
2021/05/21 10:23:03;;;;;;;5.15;0.60;;;;;;;;;;5035074;28;20017;-85
2021/05/21 10:25:31;;;;;;;1.77;0.60;;;;;;;;;;5028322;28;20080;-85
2021/05/21 10:27:58;;;;;;;1.30;0.50;;;;;;;;;;5037584;28;20049;-85
2021/05/21 10:30:25;;;;;;;1.67;0.35;;;;;;;;;;5054361;28;20544;-85
2021/05/21 10:33:10;;;;;;;1.45;0.50;;;;;;;;;;5063451;28;20075;-85
2021/05/21 10:35:36;;;;;;;2.65;0.40;;;;;;;;;;5052465;28;20120;-86
2021/05/21 10:38:17;;;;;;;1.60;0.28;;;;;;;;;;5065987;28;20137;-85
2021/05/21 10:40:44;;;;;;;3.55;1.13;;;;;;;;;;5056308;28;20420;-85
2021/05/21 10:43:16;;;;;;;0.70;0.32;;;;;;;;;;5063115;28;20013;-85
2021/05/21 10:45:53;;;;;;;1.52;0.60;;;;;;;;;;5064375;28;20081;-85
2021/05/21 10:48:25;;;;;;;2.92;0.50;;;;;;;;;;5073662;28;20468;-86
2021/05/21 10:51:06;;;;;;;2.88;0.57;;;;;;;;;;5062292;28;20021;-85
2021/05/21 10:53:32;;;;;;;1.85;0.50;;;;;;;;;;5060571;28;20020;-85
2021/05/21 10:55:58;;;;;;;0.93;0.52;;;;;;;;;;5072379;28;20349;-85
2021/05/21 10:58:33;;;;;;;9.10;0.52;;;;;;;;;;5073494;28;20025;-85
2021/05/21 11:01:09;;;;;;;4.20;0.38;;;;;;;;;;5061114;28;20025;-85
2021/05/21 11:03:54;;;;;;;2.40;0.40;;;;;;;;;;5073622;28;20032;-84
2021/05/21 11:06:20;;;;;;;3.53;0.40;;;;;;;;;;5072777;28;20024;-85
2021/05/21 11:08:46;;;;;;;4.10;0.40;;;;;;;;;;5071725;28;20561;-84
2021/05/21 11:11:14;;;;;;;1.80;0.50;;;;;;;;;;5058953;28;20059;-85
2021/05/21 11:13:40;;;;;;;1.75;0.55;;;;;;;;;;5064705;28;20028;-84
2021/05/21 11:16:11;;;;;;;2.22;0.57;;;;;;;;;;5055228;28;20037;-85
2021/05/21 11:18:46;;;;;;;1.90;0.50;;;;;;;;;;5061860;28;20166;-85
2021/05/21 11:21:13;;;;;;;1.92;0.50;;;;;;;;;;5059208;28;20116;-87
2021/05/21 11:23:41;;;;;;;1.65;0.20;;;;;;;;;;5071658;28;20074;-85
2021/05/21 11:26:13;;;;;;;2.13;0.47;;;;;;;;;;5068290;28;20032;-85
2021/05/21 11:28:47;;;;;;;4.43;0.60;;;;;;;;;;5070444;28;20480;-85
2021/05/21 11:31:14;;;;;;;1.55;0.40;;;;;;;;;;5071718;28;20035;-85
2021/05/21 11:33:41;;;;;;;3.05;0.75;;;;;;;;;;5055917;28;20116;-85
2021/05/21 11:36:08;;;;;;;0.85;0.38;;;;;;;;;;5059371;28;20031;-84
2021/05/21 11:38:34;;;;;;;2.60;0.40;;;;;;;;;;5058685;28;20029;-84
2021/05/21 11:41:00;;;;;;;2.22;0.40;;;;;;;;;;5072309;28;20021;-85
2021/05/21 11:43:27;;;;;;;12.23;0.45;;;;;;;;;;5072132;28;20027;-84
2021/05/21 11:45:54;;;;;;;1.15;0.40;;;;;;;;;;5071673;28;20489;-84
2021/05/21 11:48:32;;;;;;;1.65;0.32;;;;;;;;;;5071498;28;20020;-84
2021/05/21 11:50:59;;;;;;;3.47;0.50;;;;;;;;;;5059815;28;20044;-84
2021/05/21 11:53:25;;;;;;;1.45;0.40;;;;;;;;;;5069761;28;20116;-84
2021/05/21 11:55:51;;;;;;;1.10;0.40;;;;;;;;;;5066765;28;20397;-84
2021/05/21 11:58:24;;;;;;;1.67;0.35;;;;;;;;;;5057459;28;20435;-84
2021/05/21 12:00:51;;;;;;;5.35;0.70;;;;;;;;;;5071895;28;20028;-84
2021/05/21 12:03:17;;;;;;;1.98;0.60;;;;;;;;;;5072969;28;20382;-85
2021/05/21 12:05:45;;;;;;;0.80;0.32;;;;;;;;;;5071304;28;20126;-84
2021/05/21 12:08:11;;;;;;;2.33;0.52;;;;;;;;;;5070296;28;20132;-84
2021/05/21 12:10:37;;;;;;;1.88;0.20;;;;;;;;;;5070462;28;20024;-84
2021/05/21 12:13:06;;;;;;;2.95;0.20;;;;;;;;;;5066075;28;20016;-84
2021/05/21 12:15:32;;;;;;;4.15;0.50;;;;;;;;;;5060916;28;20048;-84
2021/05/21 12:17:58;;;;;;;0.98;0.15;;;;;;;;;;5075812;28;20036;-84
2021/05/21 12:20:24;;;;;;;3.45;0.45;;;;;;;;;;5066961;28;20472;-87
2021/05/21 12:23:00;;;;;;;2.53;0.50;;;;;;;;;;5062063;28;20029;-84
2021/05/21 12:25:28;;;;;;;3.67;0.52;;;;;;;;;;5063412;28;20079;-84
2021/05/21 12:27:54;;;;;;;3.13;0.47;;;;;;;;;;5068636;28;20044;-85
2021/05/21 12:30:20;;;;;;;1.10;0.50;;;;;;;;;;5061377;28;20043;-85
2021/05/21 12:32:48;;;;;;;1.70;0.30;;;;;;;;;;5059781;28;20092;-85
2021/05/21 12:35:16;;;;;;;0.93;0.30;;;;;;;;;;5059914;28;20028;-87
2021/05/21 12:37:48;;;;;;;1.75;0.50;;;;;;;;;;5076042;28;20035;-85
2021/05/21 12:40:16;;;;;;;0.90;0.40;;;;;;;;;;5056148;28;20029;-84
2021/05/21 12:42:53;;;;;;;1.90;0.50;;;;;;;;;;5059841;28;20110;-84
2021/05/21 12:45:19;;;;;;;1.77;0.50;;;;;;;;;;5074052;28;20037;-84
2021/05/21 12:47:49;;;;;;;1.02;0.40;;;;;;;;;;5068573;28;20029;-84
2021/05/21 12:50:17;;;;;;;2.28;0.30;;;;;;;;;;5065318;28;20047;-84
2021/05/21 12:52:56;;;;;;;1.73;0.50;;;;;;;;;;5075824;28;20027;-85
2021/05/21 12:55:22;;;;;;;0.90;0.40;;;;;;;;;;5067583;28;20495;-87
2021/05/21 12:57:48;;;;;;;2.65;0.30;;;;;;;;;;5063091;28;20036;-85
2021/05/21 13:00:21;;;;;;;2.72;0.43;;;;;;;;;;5067925;28;20025;-85
2021/05/21 13:02:47;;;;;;;;;;;;;;;;;;5065900;28;20056;-86
2021/05/21 13:05:14;;;;;;;4.45;0.55;;;;;;;;;;5055468;28;19968;-84
2021/05/21 13:07:41;;;;;;;1.05;0.30;;;;;;;;;;5062773;28;20027;-85
2021/05/21 13:10:15;;;;;;;1.67;0.20;;;;;;;;;;5060425;28;20049;-86
2021/05/21 13:12:44;;;;;;;1.55;0.47;;;;;;;;;;5061080;28;20107;-86
2021/05/21 13:15:10;;;;;;;5.57;0.82;;;;;;;;;;5068751;28;20028;-86
2021/05/21 13:17:40;;;;;;;2.10;0.30;;;;;;;;;;5059650;28;20033;-87
2021/05/21 13:20:06;;;;;;;1.23;0.30;;;;;;;;;;5061129;28;20032;-86
2021/05/21 13:22:33;;;;;;;1.05;0.30;;;;;;;;;;5067189;28;20086;-87
2021/05/21 13:25:03;;;;;;;3.80;0.22;;;;;;;;;;5062938;28;20024;-87
2021/05/21 13:27:30;;;;;;;4.65;0.35;;;;;;;;;;5052167;28;20053;-87
2021/05/21 13:29:56;;;;;;;7.30;0.70;;;;;;;;;;5029280;28;20473;-87
2021/05/21 13:32:23;;;;;;;3.13;0.60;;;;;;;;;;5017556;28;20577;-87
2021/05/21 13:34:49;;;;;;;1.02;0.40;;;;;;;;;;5029550;28;20132;-87
2021/05/21 13:37:15;;;;;;;3.00;0.40;;;;;;;;;;5036595;28;20238;-87
2021/05/21 13:39:41;;;;;;;7.82;0.38;;;;;;;;;;5017878;28;20029;-88
2021/05/21 13:42:07;;;;;;;1.85;0.40;;;;;;;;;;5028638;28;20107;-88
2021/05/21 13:44:33;;;;;;;0.68;0.20;;;;;;;;;;5030282;28;20044;-88
2021/05/21 13:47:00;;;;;;;1.00;0.30;;;;;;;;;;5036914;28;20485;-88
2021/05/21 13:49:27;;;;;;;1.98;0.40;;;;;;;;;;5037538;28;20570;-88
2021/05/21 13:51:57;;;;;;;1.00;0.28;;;;;;;;;;5029544;28;20142;-88
2021/05/21 13:54:23;;;;;;;4.50;0.47;;;;;;;;;;5049687;28;20077;-87
2021/05/21 13:56:50;;;;;;;2.25;0.28;;;;;;;;;;5037319;28;20035;-88
2021/05/21 13:59:16;;;;;;;1.98;0.38;;;;;;;;;;5021607;28;20022;-89
2021/05/21 14:01:42;;;;;;;0.75;0.28;;;;;;;;;;5043031;28;20033;-89
2021/05/21 14:04:08;;;;;;;2.85;0.73;;;;;;;;;;5020675;28;20109;-89
2021/05/21 14:06:35;;;;;;;4.32;0.40;;;;;;;;;;5023872;28;20433;-89
2021/05/21 14:09:01;;;;;;;1.65;0.40;;;;;;;;;;5031772;28;20100;-88
2021/05/21 14:11:27;;;;;;;1.02;0.20;;;;;;;;;;5023918;28;20047;-89
2021/05/21 14:13:54;;;;;;;1.45;0.40;;;;;;;;;;5028728;28;20053;-87
2021/05/21 14:16:20;;;;;;;1.27;0.28;;;;;;;;;;5029600;28;20520;-87
2021/05/21 14:18:46;;;;;;;0.55;0.17;;;;;;;;;;5041665;28;20025;-87
2021/05/21 14:21:12;;;;;;;2.65;0.30;;;;;;;;;;5025573;28;20462;-88
2021/05/21 14:23:41;;;;;;;3.70;0.73;;;;;;;;;;5028448;28;20477;-86
2021/05/21 14:26:07;;;;;;;2.70;0.32;;;;;;;;;;5035373;28;20489;-87
2021/05/21 14:28:34;;;;;;;1.35;0.40;;;;;;;;;;5038058;28;20904;-87
2021/05/21 14:31:00;;;;;;;5.28;0.60;;;;;;;;;;5059198;28;20029;-87
2021/05/21 14:33:34;;;;;;;0.85;0.30;;;;;;;;;;5058621;28;20037;-87
2021/05/21 14:36:00;;;;;;;2.75;0.43;;;;;;;;;;5060254;28;20021;-87
2021/05/21 14:38:26;;;;;;;1.08;0.50;;;;;;;;;;5065943;28;20537;-88
2021/05/21 14:40:52;;;;;;;1.77;0.63;;;;;;;;;;5070439;28;20369;-85
2021/05/21 14:43:18;;;;;;;3.10;0.35;;;;;;;;;;5056657;28;20116;-86
2021/05/21 14:45:46;;;;;;;3.58;0.60;;;;;;;;;;5056905;28;20443;-85